Time;durP1;ratioP1;P1;durP2;ratioP2;P2;SDS_P1;SDS_P2;PMS_P1;PMS_P2;Temp;Humidity;BMP_temperature;BMP_pressure;BME280_temperature;BME280_humidity;BME280_pressure;Samples;Min_cycle;Max_cycle;Signal;HPM_P1;HPM_P2
2022/09/26 00:00:15;;;;;;;932.70;869.67;;;;;;;15.99;62.38;100352.78;697352;28;44308;-63
2022/09/26 00:00:40;;;;;;;952.50;888.72;;;;;;;15.98;62.49;100343.75;696091;28;53198;-62
2022/09/26 00:01:06;;;;;;;941.95;878.63;;;;;;;16.00;62.55;100346.25;692573;28;114821;-63
2022/09/26 00:01:29;;;;;;;936.95;873.60;;;;;;;16.00;62.55;100346.25;691734;28;136171;-63
2022/09/26 00:01:50;;;;;;;946.13;882.53;;;;;;;15.99;62.47;100342.72;694401;28;46329;-62
2022/09/26 00:02:11;;;;;;;943.97;880.40;;;;;;;15.98;62.43;100342.94;695829;28;46330;-63
2022/09/26 00:02:33;;;;;;;938.15;874.75;;;;;;;15.98;62.55;100345.66;695746;28;22395;-63
2022/09/26 00:02:55;;;;;;;946.85;883.20;;;;;;;15.97;62.46;100343.97;694923;28;44365;-62
2022/09/26 00:03:16;;;;;;;939.15;875.80;;;;;;;15.97;62.64;100342.09;696685;28;22389;-62
2022/09/26 00:03:42;;;;;;;944.97;881.40;;;;;;;15.97;62.60;100341.25;698896;28;13737;-62
2022/09/26 00:04:15;;;;;;;947.67;883.97;;;;;;;15.92;62.41;100339.19;696863;28;69406;-64
2022/09/26 00:04:36;;;;;;;953.45;889.55;;;;;;;15.95;62.75;100346.09;694444;28;137770;-63
2022/09/26 00:04:57;;;;;;;959.05;894.97;;;;;;;15.96;62.35;100339.59;695140;28;8086;-64
2022/09/26 00:05:19;;;;;;;947.40;883.75;;;;;;;15.95;62.67;100343.38;695787;28;22409;-63
2022/09/26 00:05:41;;;;;;;957.33;893.35;;;;;;;15.94;62.41;100341.69;695898;28;22359;-63
2022/09/26 00:06:03;;;;;;;944.70;881.17;;;;;;;15.92;62.72;100335.63;694180;28;69187;-63
2022/09/26 00:06:25;;;;;;;946.55;882.85;;;;;;;15.92;62.55;100343.81;694685;28;46311;-63
2022/09/26 00:06:47;;;;;;;946.15;882.55;;;;;;;15.90;62.74;100337.75;692239;28;45131;-63
2022/09/26 00:07:09;;;;;;;950.67;886.47;;;;;;;15.91;62.68;100340.25;691765;28;23430;-62
2022/09/26 00:07:30;;;;;;;936.88;873.42;;;;;;;15.92;62.54;100339.19;691357;28;67480;-61
2022/09/26 00:07:51;;;;;;;935.00;871.80;;;;;;;15.92;62.52;100339.19;692977;28;21550;-62
2022/09/26 00:08:12;;;;;;;946.30;882.65;;;;;;;15.92;62.55;100336.47;693121;28;21552;-63
2022/09/26 00:08:35;;;;;;;944.92;881.35;;;;;;;15.91;62.58;100336.69;692953;28;21289;-63
2022/09/26 00:08:57;;;;;;;942.28;878.67;;;;;;;15.93;62.41;100340.88;693993;28;67530;-62
2022/09/26 00:09:19;;;;;;;949.22;885.50;;;;;;;15.93;62.34;100343.59;694964;28;44383;-63
2022/09/26 00:09:41;;;;;;;947.40;883.80;;;;;;;15.92;62.11;100333.75;695060;28;45181;-63
2022/09/26 00:10:03;;;;;;;945.47;881.85;;;;;;;15.94;62.50;100349.84;694943;28;44270;-63
2022/09/26 00:10:24;;;;;;;946.92;883.35;;;;;;;15.92;62.55;100339.19;694643;28;46238;-62
2022/09/26 00:10:45;;;;;;;950.40;886.60;;;;;;;15.92;62.66;100341.91;695653;28;23875;-63
2022/09/26 00:11:09;;;;;;;952.17;888.38;;;;;;;15.92;62.31;100341.09;695418;28;22384;-64
2022/09/26 00:11:31;;;;;;;957.75;893.75;;;;;;;15.91;62.41;100339.41;693303;28;92248;-63
2022/09/26 00:11:53;;;;;;;949.28;885.53;;;;;;;15.89;62.34;100336.09;695035;28;21523;-64
2022/09/26 00:12:15;;;;;;;945.00;881.50;;;;;;;15.91;62.50;100339.41;695694;28;22605;-64
2022/09/26 00:12:36;;;;;;;941.88;878.53;;;;;;;15.92;62.46;100336.47;694971;28;44380;-64
2022/09/26 00:12:57;;;;;;;945.58;882.10;;;;;;;15.92;62.38;100332.91;695697;28;22376;-64
2022/09/26 00:13:18;;;;;;;948.33;884.78;;;;;;;15.92;62.22;100341.09;695587;28;21518;-63
2022/09/26 00:13:41;;;;;;;958.30;894.28;;;;;;;15.91;62.41;100333.97;695866;28;22186;-63
2022/09/26 00:14:06;;;;;;;960.95;896.85;;;;;;;15.92;62.40;100339.19;694150;28;69406;-63
2022/09/26 00:14:28;;;;;;;943.25;879.75;;;;;;;15.92;62.34;100346.53;692447;28;115250;-64
2022/09/26 00:14:49;;;;;;;958.13;894.03;;;;;;;15.91;62.28;100337.53;694848;28;44381;-64
2022/09/26 00:15:11;;;;;;;955.33;891.35;;;;;;;15.91;62.34;100344.84;696306;28;1203;-64
2022/09/26 00:15:33;;;;;;;959.30;895.20;;;;;;;15.90;62.41;100340.50;695738;28;23764;-63
2022/09/26 00:15:57;;;;;;;958.65;894.70;;;;;;;15.89;62.15;100338.81;694140;28;69480;-63
2022/09/26 00:16:18;;;;;;;946.47;882.88;;;;;;;15.89;62.22;100342.34;694000;28;69462;-64
2022/09/26 00:16:39;;;;;;;937.55;874.20;;;;;;;15.88;62.15;100332.53;695969;28;22395;-63
2022/09/26 00:17:02;;;;;;;938.55;874.80;;;;;;;15.88;62.33;100337.13;695338;28;46255;-62
2022/09/26 00:17:23;;;;;;;948.55;884.40;;;;;;;15.88;62.31;100334.41;699780;28;45196;-64
2022/09/26 00:17:44;;;;;;;945.35;881.70;;;;;;;15.87;62.36;100336.31;701025;28;21480;-64
2022/09/26 00:18:05;;;;;;;946.90;883.28;;;;;;;15.87;62.39;100341.75;701024;28;21526;-64
2022/09/26 00:18:26;;;;;;;947.90;884.22;;;;;;;15.87;62.30;100335.47;700916;28;21543;-63
2022/09/26 00:18:49;;;;;;;958.35;894.25;;;;;;;15.86;62.28;100337.34;700941;28;21501;-64
2022/09/26 00:19:10;;;;;;;962.08;897.90;;;;;;;15.87;62.18;100328.13;698161;28;92361;-64
2022/09/26 00:19:31;;;;;;;961.42;897.25;;;;;;;15.87;62.07;100330.84;697501;28;47726;-63
2022/09/26 00:19:53;;;;;;;956.50;892.58;;;;;;;15.86;62.26;100337.34;698521;28;22381;-62
2022/09/26 00:20:15;;;;;;;957.00;893.03;;;;;;;15.85;62.26;100336.53;698586;28;21597;-63
2022/09/26 00:20:36;;;;;;;953.70;889.85;;;;;;;15.86;62.10;100337.34;700061;28;43916;-64
2022/09/26 00:21:02;;;;;;;950.15;886.45;;;;;;;15.85;62.20;100338.44;701056;28;21544;-61
2022/09/26 00:21:24;;;;;;;945.00;881.38;;;;;;;15.86;62.11;100340.06;696528;28;136398;-63
2022/09/26 00:21:45;;;;;;;953.78;889.92;;;;;;;15.85;62.46;100332.97;699405;28;69395;-63
2022/09/26 00:22:07;;;;;;;954.83;890.92;;;;;;;15.86;62.38;100331.91;700287;28;23725;-62
2022/09/26 00:22:28;;;;;;;943.05;879.53;;;;;;;15.87;62.36;100339.03;699077;28;46304;-62
2022/09/26 00:22:50;;;;;;;948.95;885.25;;;;;;;15.87;62.21;100336.31;696380;28;21298;-63
2022/09/26 00:23:11;;;;;;;951.50;887.65;;;;;;;15.84;62.15;100329.41;695800;28;21108;-64
2022/09/26 00:23:32;;;;;;;944.78;881.17;;;;;;;15.87;62.06;100339.03;695623;28;21523;-64
2022/09/26 00:23:55;;;;;;;944.53;880.90;;;;;;;15.84;62.32;100334.03;695993;28;15163;-63
2022/09/26 00:24:17;;;;;;;949.72;886.00;;;;;;;15.87;62.04;100339.03;693996;28;67456;-63
2022/09/26 00:24:38;;;;;;;949.78;886.20;;;;;;;15.83;62.27;100327.75;696119;28;14396;-63
2022/09/26 00:25:00;;;;;;;933.63;870.63;;;;;;;15.86;62.24;100334.63;695728;28;22468;-63
2022/09/26 00:25:21;;;;;;;938.78;875.53;;;;;;;15.85;62.09;100330.25;693948;28;67550;-64
2022/09/26 00:25:45;;;;;;;933.38;870.13;;;;;;;15.86;62.33;100331.91;695543;28;23491;-63
2022/09/26 00:26:07;;;;;;;933.00;869.42;;;;;;;15.85;62.14;100336.53;691333;28;81543;-62
2022/09/26 00:26:31;;;;;;;936.53;873.00;;;;;;;15.85;62.00;100331.09;689144;28;44839;-64
2022/09/26 00:26:53;;;;;;;926.83;863.72;;;;;;;15.82;61.97;100330.69;686508;28;90871;-64
2022/09/26 00:27:16;;;;;;;935.63;871.88;;;;;;;15.82;62.01;100336.16;690369;28;1178;-64
2022/09/26 00:27:37;;;;;;;929.53;866.40;;;;;;;15.80;62.15;100330.09;688809;28;22388;-63
2022/09/26 00:27:58;;;;;;;934.20;870.92;;;;;;;15.79;62.07;100325.69;689872;28;22471;-62
2022/09/26 00:28:20;;;;;;;933.70;870.55;;;;;;;15.78;62.21;100329.47;690950;28;22323;-63
2022/09/26 00:28:41;;;;;;;940.38;876.97;;;;;;;15.77;62.20;100331.38;692748;28;46316;-64
2022/09/26 00:29:06;;;;;;;946.10;882.47;;;;;;;15.77;62.33;100336.81;692583;28;22389;-64
2022/09/26 00:29:28;;;;;;;937.70;874.42;;;;;;;15.77;62.38;100336.81;690719;28;113320;-63
2022/09/26 00:29:49;;;;;;;931.83;868.65;;;;;;;15.76;62.47;100340.53;692045;28;45401;-63
2022/09/26 00:30:11;;;;;;;937.22;873.95;;;;;;;15.77;62.42;100333.25;693387;28;10180;-63
2022/09/26 00:30:35;;;;;;;936.22;872.90;;;;;;;15.76;62.51;100337.00;691955;28;45229;-63
2022/09/26 00:31:02;;;;;;;935.88;872.53;;;;;;;15.73;61.94;100327.38;691776;28;92242;-63
2022/09/26 00:31:26;;;;;;;932.65;869.47;;;;;;;15.75;62.03;100335.31;691593;28;138114;-63
2022/09/26 00:31:48;;;;;;;934.28;871.13;;;;;;;15.73;62.03;100337.44;693209;28;92252;-63
2022/09/26 00:32:10;;;;;;;928.28;865.20;;;;;;;15.73;62.17;100334.72;695962;28;66210;-64
2022/09/26 00:32:31;;;;;;;928.08;865.03;;;;;;;15.73;62.06;100332.00;694409;28;46296;-63
2022/09/26 00:32:53;;;;;;;933.83;870.58;;;;;;;15.73;62.23;100337.44;695493;28;23458;-64
2022/09/26 00:33:14;;;;;;;938.50;875.17;;;;;;;15.70;62.15;100335.97;692957;28;44387;-63
2022/09/26 00:33:35;;;;;;;942.42;878.88;;;;;;;15.71;62.32;100337.66;695532;28;22396;-64
2022/09/26 00:33:57;;;;;;;948.15;884.40;;;;;;;15.70;62.14;100333.25;695308;28;22371;-62
2022/09/26 00:34:19;;;;;;;949.65;885.95;;;;;;;15.72;62.31;100333.03;695236;28;45223;-62
2022/09/26 00:34:42;;;;;;;940.20;876.67;;;;;;;15.72;62.16;100335.75;695755;28;92516;-63
2022/09/26 00:35:04;;;;;;;941.10;877.65;;;;;;;15.72;62.37;100335.75;698330;28;23480;-63
2022/09/26 00:35:25;;;;;;;938.83;875.45;;;;;;;15.70;62.04;100330.53;697370;28;46494;-61
2022/09/26 00:35:48;;;;;;;935.47;872.17;;;;;;;15.70;62.03;100335.97;697599;28;46393;-63
2022/09/26 00:36:11;;;;;;;942.90;879.38;;;;;;;15.68;62.29;100335.38;696660;28;70270;-63
2022/09/26 00:36:32;;;;;;;949.60;885.78;;;;;;;15.68;62.17;100329.94;697240;28;46327;-63
2022/09/26 00:36:54;;;;;;;939.92;876.63;;;;;;;15.68;62.17;100338.09;695374;28;45084;-64
2022/09/26 00:37:16;;;;;;;938.42;874.88;;;;;;;15.67;62.42;100334.56;695142;28;23465;-64
2022/09/26 00:37:37;;;;;;;938.90;875.58;;;;;;;15.67;62.17;100339.16;694670;28;45229;-63
2022/09/26 00:37:58;;;;;;;933.22;870.10;;;;;;;15.65;61.99;100336.63;694533;28;45166;-64
2022/09/26 00:38:20;;;;;;;930.75;867.63;;;;;;;15.64;62.46;100332.28;695421;28;21520;-62
2022/09/26 00:38:43;;;;;;;935.05;871.72;;;;;;;15.63;62.09;100336.03;694829;28;46261;-64
2022/09/26 00:39:06;;;;;;;942.42;878.95;;;;;;;15.63;62.09;100335.22;693975;28;69610;-64
2022/09/26 00:39:27;;;;;;;950.45;886.75;;;;;;;15.61;62.05;100331.84;694832;28;46264;-63
2022/09/26 00:39:48;;;;;;;950.10;886.45;;;;;;;15.60;62.11;100336.47;695703;28;22394;-64
2022/09/26 00:40:11;;;;;;;936.15;872.83;;;;;;;15.60;62.38;100336.47;693950;28;67503;-64
2022/09/26 00:40:32;;;;;;;929.67;866.47;;;;;;;15.59;62.41;100332.06;694423;28;46650;-64
2022/09/26 00:40:54;;;;;;;933.13;869.88;;;;;;;15.58;62.24;100329.56;692588;28;22393;-63
2022/09/26 00:41:15;;;;;;;926.20;863.22;;;;;;;15.58;62.31;100335.88;692611;28;21520;-63
2022/09/26 00:41:38;;;;;;;917.92;855.22;;;;;;;15.58;62.42;100332.28;692013;28;46319;-64
2022/09/26 00:41:59;;;;;;;937.95;874.70;;;;;;;15.57;62.26;100334.19;691313;28;46344;-63
2022/09/26 00:42:21;;;;;;;946.28;882.67;;;;;;;15.56;62.53;100335.25;693018;28;23419;-62
2022/09/26 00:42:42;;;;;;;937.15;873.88;;;;;;;15.56;62.33;100337.13;693930;28;67613;-63
2022/09/26 00:43:25;;;;;;;946.03;882.42;;;;;;;15.54;62.19;100331.09;693365;28;22390;-63
2022/09/26 00:43:48;;;;;;;950.13;886.38;;;;;;;15.55;62.69;100341.75;687611;28;135764;-63
2022/09/26 00:44:44;;;;;;;936.58;873.33;;;;;;;15.54;62.42;100339.25;688503;28;70196;-63
2022/09/26 00:45:08;;;;;;;938.90;875.50;;;;;;;15.54;62.30;100337.34;688811;28;126770;-63
2022/09/26 00:45:30;;;;;;;941.22;877.70;;;;;;;15.54;62.54;100331.91;692470;28;70257;-63
2022/09/26 00:45:51;;;;;;;933.85;870.67;;;;;;;15.55;62.55;100332.72;694890;28;45017;-63
2022/09/26 00:46:25;;;;;;;923.08;860.22;;;;;;;15.54;62.26;100333.81;691822;28;43554;-63
2022/09/26 00:46:47;;;;;;;926.42;863.33;;;;;;;15.56;62.22;100331.69;688503;28;135958;-63
2022/09/26 00:47:26;;;;;;;934.15;870.63;;;;;;;15.54;62.49;100333.81;690407;28;44465;-62
2022/09/26 00:47:50;;;;;;;946.42;882.83;;;;;;;15.51;62.47;100332.34;688940;28;137629;-62
2022/09/26 00:48:13;;;;;;;941.90;878.65;;;;;;;15.53;62.21;100335.69;694493;28;38679;-63
2022/09/26 00:48:35;;;;;;;942.45;879.10;;;;;;;15.53;62.17;100326.69;694602;28;46332;-62
2022/09/26 00:49:03;;;;;;;952.05;888.35;;;;;;;15.53;62.19;100329.41;697331;28;46194;-62
2022/09/26 00:49:27;;;;;;;953.20;889.40;;;;;;;15.53;62.29;100332.13;694290;28;136157;-63
2022/09/26 00:49:50;;;;;;;956.58;892.58;;;;;;;15.53;62.41;100332.13;695839;28;92244;-62
2022/09/26 00:50:17;;;;;;;957.03;893.03;;;;;;;15.49;62.20;100324.41;694646;28;44345;-62
2022/09/26 00:50:41;;;;;;;947.10;883.30;;;;;;;15.50;62.23;100327.94;694115;28;58783;-62
2022/09/26 00:51:03;;;;;;;948.65;885.00;;;;;;;15.49;62.24;100329.03;695345;28;23487;-63
2022/09/26 00:51:27;;;;;;;948.38;884.50;;;;;;;15.48;62.16;100322.72;695191;28;24148;-63
2022/09/26 00:51:53;;;;;;;947.95;884.13;;;;;;;15.48;62.08;100328.16;691346;28;115287;-61
2022/09/26 00:52:17;;;;;;;959.25;895.13;;;;;;;15.48;62.05;100324.63;666478;28;115313;-62
2022/09/26 00:52:41;;;;;;;949.42;885.58;;;;;;;15.46;62.51;100326.75;692497;28;92156;-62
2022/09/26 00:53:08;;;;;;;951.95;888.05;;;;;;;15.45;62.05;100320.47;692380;28;114978;-63
2022/09/26 00:53:34;;;;;;;951.28;887.47;;;;;;;15.45;62.24;100323.19;691361;28;137918;-64
2022/09/26 00:53:55;;;;;;;947.33;883.65;;;;;;;15.45;62.51;100325.91;688601;28;134642;-61
2022/09/26 00:54:17;;;;;;;944.15;880.63;;;;;;;15.45;62.21;100322.34;691730;28;45294;-62
2022/09/26 00:54:44;;;;;;;944.33;880.78;;;;;;;15.44;62.18;100318.78;691816;28;46381;-62
2022/09/26 00:55:11;;;;;;;943.33;879.83;;;;;;;15.44;62.40;100323.41;686356;28;136387;-63
2022/09/26 00:55:37;;;;;;;945.47;881.72;;;;;;;15.44;62.29;100323.41;688695;28;59155;-63
2022/09/26 00:56:04;;;;;;;938.95;875.58;;;;;;;15.45;62.31;100327.78;692917;28;90288;-63
2022/09/26 00:56:29;;;;;;;950.63;886.85;;;;;;;15.45;62.25;100319.63;691458;28;137955;-63
2022/09/26 00:56:52;;;;;;;950.67;886.85;;;;;;;15.44;62.37;100321.50;689524;28;92046;-63
2022/09/26 00:57:21;;;;;;;955.63;891.35;;;;;;;15.45;62.14;100320.47;690279;28;92256;-63
2022/09/26 00:57:45;;;;;;;952.38;888.47;;;;;;;15.44;62.22;100324.25;688781;28;137918;-63
2022/09/26 00:58:09;;;;;;;937.45;874.10;;;;;;;15.45;62.36;100327.78;689447;28;114934;-63
2022/09/26 00:58:34;;;;;;;953.72;889.92;;;;;;;15.43;62.25;100316.28;690436;28;90826;-63
2022/09/26 00:59:00;;;;;;;943.40;880.03;;;;;;;15.43;62.29;100321.75;687387;28;79217;-64
2022/09/26 00:59:24;;;;;;;937.95;874.78;;;;;;;15.43;62.15;100325.28;686016;28;137157;-63
2022/09/26 00:59:48;;;;;;;949.38;885.72;;;;;;;15.43;62.39;100324.47;687648;28;92584;-63
2022/09/26 01:00:11;;;;;;;944.35;880.85;;;;;;;15.44;62.18;100326.13;687813;28;92270;-64
2022/09/26 01:00:32;;;;;;;952.85;888.92;;;;;;;15.44;62.46;100320.69;685613;28;67473;-64
2022/09/26 01:00:54;;;;;;;948.13;884.30;;;;;;;15.43;62.20;100319.00;686474;28;43871;-62
2022/09/26 01:01:17;;;;;;;950.70;886.72;;;;;;;15.43;62.18;100327.19;689339;28;927;-63
2022/09/26 01:01:41;;;;;;;950.22;886.33;;;;;;;15.43;62.37;100321.75;688064;28;136411;-63
2022/09/26 01:02:03;;;;;;;941.65;877.97;;;;;;;15.42;62.30;100318.19;690432;28;23491;-63
2022/09/26 01:02:26;;;;;;;943.10;879.47;;;;;;;15.43;62.34;100324.47;693942;28;1833;-64
2022/09/26 01:02:47;;;;;;;951.63;887.63;;;;;;;15.41;62.15;100318.41;691561;28;46426;-63
2022/09/26 01:03:12;;;;;;;954.40;890.40;;;;;;;15.39;62.21;100321.34;692738;28;13693;-63
2022/09/26 01:03:33;;;;;;;952.65;888.75;;;;;;;15.38;62.47;100316.13;691156;28;69406;-64
2022/09/26 01:03:56;;;;;;;947.58;883.92;;;;;;;15.37;61.98;100318.00;693685;28;23459;-63
2022/09/26 01:04:17;;;;;;;955.58;891.63;;;;;;;15.35;62.15;100322.81;694470;28;45222;-64
2022/09/26 01:04:41;;;;;;;951.40;887.55;;;;;;;15.33;62.42;100319.50;692098;28;49094;-64
2022/09/26 01:05:04;;;;;;;936.07;872.77;;;;;;;15.32;62.61;100321.38;692870;28;93860;-63
2022/09/26 01:05:26;;;;;;;949.75;886.00;;;;;;;15.31;62.68;100319.72;689646;28;115242;-64
2022/09/26 01:05:48;;;;;;;950.03;886.25;;;;;;;15.31;62.61;100317.00;693065;28;13277;-63
2022/09/26 01:06:10;;;;;;;945.83;882.22;;;;;;;15.31;62.64;100316.16;691949;28;45249;-63
2022/09/26 01:06:31;;;;;;;957.03;893.00;;;;;;;15.31;62.57;100314.28;692779;28;46649;-64
2022/09/26 01:06:53;;;;;;;956.40;892.47;;;;;;;15.31;62.57;100314.28;691704;28;21513;-64
2022/09/26 01:07:17;;;;;;;948.42;884.40;;;;;;;15.31;62.66;100317.00;692187;28;46265;-62
2022/09/26 01:07:39;;;;;;;947.15;883.45;;;;;;;15.33;62.60;100311.34;693058;28;90305;-64
2022/09/26 01:08:01;;;;;;;947.03;883.30;;;;;;;15.33;62.45;100314.06;694547;28;44372;-64
2022/09/26 01:08:30;;;;;;;943.13;879.58;;;;;;;15.33;62.45;100308.63;694388;28;45210;-63
2022/09/26 01:08:56;;;;;;;948.25;884.35;;;;;;;15.33;62.67;100316.78;690642;28;158940;-64
2022/09/26 01:09:17;;;;;;;944.22;880.60;;;;;;;15.34;62.67;100314.88;691415;28;136419;-63
2022/09/26 01:09:38;;;;;;;949.22;885.40;;;;;;;15.33;62.71;100316.78;695631;28;22361;-64
2022/09/26 01:10:02;;;;;;;950.22;886.55;;;;;;;15.34;62.39;100309.44;695593;28;22405;-63
2022/09/26 01:10:27;;;;;;;944.78;881.30;;;;;;;15.33;62.61;100316.78;691364;28;136301;-63
2022/09/26 01:10:49;;;;;;;948.70;885.15;;;;;;;15.33;62.60;100314.06;693839;28;65873;-63
2022/09/26 01:11:13;;;;;;;934.08;870.97;;;;;;;15.32;62.55;100313.22;694631;28;46332;-63
2022/09/26 01:11:36;;;;;;;929.50;866.40;;;;;;;15.31;62.37;100310.69;692164;28;115001;-63
2022/09/26 01:12:00;;;;;;;938.58;875.17;;;;;;;15.29;62.80;100310.91;693786;28;46403;-62
2022/09/26 01:12:22;;;;;;;955.22;891.15;;;;;;;15.29;62.90;100312.81;692722;28;92116;-63
2022/09/26 01:12:43;;;;;;;945.58;881.95;;;;;;;15.29;62.89;100310.09;694235;28;45249;-62
2022/09/26 01:13:05;;;;;;;949.85;886.10;;;;;;;15.29;62.78;100310.09;695318;28;22382;-61
2022/09/26 01:13:31;;;;;;;943.85;880.25;;;;;;;15.27;62.64;100310.31;694265;28;92562;-64
2022/09/26 01:13:53;;;;;;;953.72;889.83;;;;;;;15.27;62.80;100313.03;693123;28;90448;-63
2022/09/26 01:14:14;;;;;;;948.92;885.17;;;;;;;15.26;62.66;100305.91;694879;28;46193;-63
2022/09/26 01:14:37;;;;;;;943.60;880.00;;;;;;;15.26;62.63;100302.38;695444;28;22481;-63
2022/09/26 01:14:59;;;;;;;940.63;877.20;;;;;;;15.26;62.52;100302.38;694452;28;45219;-64
2022/09/26 01:15:21;;;;;;;942.47;879.05;;;;;;;15.25;62.89;100307.00;696078;28;889;-63
2022/09/26 01:15:43;;;;;;;939.22;875.78;;;;;;;15.25;62.65;100308.84;694357;28;46264;-64
2022/09/26 01:16:05;;;;;;;951.37;887.57;;;;;;;15.24;62.55;100302.59;693640;28;69650;-63
2022/09/26 01:16:30;;;;;;;942.00;878.55;;;;;;;15.23;62.78;100306.34;691564;28;46382;-62
2022/09/26 01:16:51;;;;;;;949.35;885.60;;;;;;;15.23;62.73;100306.34;688828;28;113670;-63
2022/09/26 01:17:13;;;;;;;950.88;886.83;;;;;;;15.22;62.71;100304.69;695082;28;22399;-63
2022/09/26 01:17:37;;;;;;;952.42;888.53;;;;;;;15.23;63.04;100302.81;692049;28;92355;-63
2022/09/26 01:18:01;;;;;;;949.00;885.20;;;;;;;15.23;62.96;100300.09;688412;28;69186;-61
2022/09/26 01:18:22;;;;;;;946.63;882.90;;;;;;;15.23;62.80;100302.81;690458;28;46571;-63
2022/09/26 01:18:44;;;;;;;946.80;883.03;;;;;;;15.22;62.85;100296.53;692483;28;21333;-63
2022/09/26 01:19:11;;;;;;;953.15;889.33;;;;;;;15.23;62.83;100300.91;691899;28;44400;-63
2022/09/26 01:19:41;;;;;;;962.80;898.53;;;;;;;15.22;63.17;100303.84;690438;28;137631;-63
2022/09/26 01:20:11;;;;;;;951.33;887.28;;;;;;;15.23;62.89;100305.53;691155;28;136137;-63
2022/09/26 01:20:43;;;;;;;953.97;890.05;;;;;;;15.22;63.06;100299.25;691208;28;137743;-63
2022/09/26 01:21:26;;;;;;;943.50;879.92;;;;;;;15.19;62.92;100291.53;691246;28;137475;-62
2022/09/26 01:22:14;;;;;;;950.20;886.45;;;;;;;15.23;62.96;100297.38;691348;28;137419;-63
2022/09/26 01:23:04;;;;;;;962.08;897.97;;;;;;;15.24;62.93;100291.72;686730;28;180007;-61
2022/09/26 01:23:42;;;;;;;962.38;898.20;;;;;;;15.24;63.06;100293.59;689344;28;115878;-62
2022/09/26 01:24:36;;;;;;;954.78;890.83;;;;;;;15.24;63.05;100288.16;691218;28;138522;-63
2022/09/26 01:25:06;;;;;;;950.33;886.50;;;;;;;15.24;62.92;100288.16;683059;28;137514;-64
2022/09/26 01:25:41;;;;;;;957.97;893.90;;;;;;;15.24;62.99;100296.31;690824;28;136181;-63
2022/09/26 01:26:33;;;;;;;953.72;889.92;;;;;;;15.25;63.00;100298.81;692446;28;137171;-63
2022/09/26 01:27:23;;;;;;;952.30;888.28;;;;;;;15.24;62.86;100291.72;692301;28;137692;-61
2022/09/26 01:27:56;;;;;;;990.30;925.17;;;;;;;15.23;63.29;100278.31;691241;28;136266;-62
2022/09/26 01:28:31;;;;;;;983.55;918.63;;;;;;;15.25;62.94;100292.53;691540;28;136038;-63
2022/09/26 01:29:08;;;;;;;966.33;902.03;;;;;;;15.24;62.96;100283.53;693313;28;137630;-62
2022/09/26 01:30:00;;;;;;;973.33;908.58;;;;;;;15.24;62.85;100285.44;690819;28;137477;-63
2022/09/26 01:30:25;;;;;;;935.45;872.15;;;;;;;15.22;62.96;100282.94;689777;28;160140;-63
2022/09/26 01:30:50;;;;;;;935.83;872.47;;;;;;;15.20;63.27;100281.47;690747;28;115039;-62
2022/09/26 01:31:17;;;;;;;937.42;874.15;;;;;;;15.21;63.25;100280.44;689304;28;113581;-63
2022/09/26 01:31:41;;;;;;;962.92;898.63;;;;;;;15.20;62.96;100292.38;691422;28;137699;-63
2022/09/26 01:33:16;;;;;;;971.28;906.88;;;;;;;15.21;63.22;100288.59;690310;28;158792;-63
2022/09/26 01:33:48;;;;;;;954.70;890.90;;;;;;;15.20;63.18;100279.59;691541;28;136105;-63
2022/09/26 01:34:13;;;;;;;959.65;895.63;;;;;;;15.21;63.43;100283.97;692919;28;160532;-63
2022/09/26 01:34:41;;;;;;;951.40;887.65;;;;;;;15.22;63.12;100291.09;691894;28;114540;-63
2022/09/26 01:35:10;;;;;;;951.25;887.50;;;;;;;15.23;63.38;100284.59;685735;28;137777;-63
2022/09/26 01:35:53;;;;;;;949.67;885.95;;;;;;;15.23;63.24;100286.47;686053;28;117808;-63
2022/09/26 01:36:43;;;;;;;981.25;916.47;;;;;;;15.24;63.38;100290.88;680128;28;137724;-61
2022/09/26 01:37:09;;;;;;;963.35;898.83;;;;;;;15.25;63.23;100284.38;687999;28;138111;-63
2022/09/26 01:37:37;;;;;;;949.40;885.50;;;;;;;15.24;63.41;100289.00;688204;28;138109;-63
2022/09/26 01:38:10;;;;;;;959.33;895.22;;;;;;;15.25;63.43;100287.94;688577;28;138227;-63
2022/09/26 01:38:43;;;;;;;965.60;901.25;;;;;;;15.25;63.06;100292.53;685531;28;137911;-64
2022/09/26 01:39:26;;;;;;;982.25;917.42;;;;;;;15.25;63.23;100287.09;684782;28;160464;-63
2022/09/26 01:39:53;;;;;;;977.03;912.30;;;;;;;15.25;63.38;100287.09;688500;28;137752;-62
2022/09/26 01:40:20;;;;;;;988.08;922.92;;;;;;;15.26;63.02;100281.44;685778;28;138748;-63
2022/09/26 01:40:44;;;;;;;976.22;911.42;;;;;;;15.26;63.02;100284.16;685583;28;137718;-63
2022/09/26 01:41:16;;;;;;;982.83;917.92;;;;;;;15.26;63.28;100288.78;687515;28;92107;-63
2022/09/26 01:41:46;;;;;;;980.92;916.03;;;;;;;15.24;63.32;100283.53;686026;28;137512;-62
2022/09/26 01:42:14;;;;;;;982.13;917.22;;;;;;;15.23;62.92;100281.88;684314;28;160818;-63
2022/09/26 01:42:43;;;;;;;961.72;897.47;;;;;;;15.23;62.99;100278.31;688998;28;138378;-63
2022/09/26 01:43:07;;;;;;;975.55;910.72;;;;;;;15.23;63.07;100283.75;690937;28;137226;-63
2022/09/26 01:43:33;;;;;;;971.03;906.53;;;;;;;15.22;63.19;100279.38;689717;28;92754;-63
2022/09/26 01:44:04;;;;;;;968.17;903.83;;;;;;;15.22;63.24;100282.09;688706;28;138140;-63
2022/09/26 01:44:29;;;;;;;970.28;905.95;;;;;;;15.21;63.17;100283.16;683333;28;136156;-63
2022/09/26 01:44:56;;;;;;;968.35;904.05;;;;;;;15.21;63.49;100275.81;684380;28;115041;-63
2022/09/26 01:45:22;;;;;;;970.50;906.05;;;;;;;15.21;63.18;100273.09;686696;28;136147;-63
2022/09/26 01:45:50;;;;;;;967.78;903.33;;;;;;;15.21;63.22;100275.00;687326;28;115080;-63
2022/09/26 01:46:20;;;;;;;965.00;900.72;;;;;;;15.23;63.46;100270.16;688445;28;137790;-63
2022/09/26 01:46:46;;;;;;;965.80;901.38;;;;;;;15.23;63.43;100272.88;690471;28;158988;-63
2022/09/26 01:47:12;;;;;;;977.67;912.60;;;;;;;15.24;63.31;100274.56;687206;28;138618;-63
2022/09/26 01:47:40;;;;;;;969.20;904.67;;;;;;;15.24;63.40;100275.38;689961;28;137636;-63
2022/09/26 01:48:05;;;;;;;971.28;906.78;;;;;;;15.24;63.55;100269.94;690915;28;138084;-63
2022/09/26 01:48:32;;;;;;;955.65;891.60;;;;;;;15.25;63.47;100276.22;688578;28;138186;-62
2022/09/26 01:48:55;;;;;;;972.88;908.40;;;;;;;15.25;63.20;100277.06;685931;28;138743;-63
2022/09/26 01:49:21;;;;;;;975.45;910.83;;;;;;;15.25;63.45;100276.22;687541;28;92170;-63
2022/09/26 01:49:48;;;;;;;953.28;889.38;;;;;;;15.25;63.38;100273.50;685816;28;138158;-63
2022/09/26 01:50:17;;;;;;;952.53;888.50;;;;;;;15.26;63.41;100278.72;685840;28;60377;-62
2022/09/26 01:50:43;;;;;;;970.75;906.13;;;;;;;15.27;63.09;100279.56;686058;28;62446;-63
2022/09/26 01:51:11;;;;;;;964.80;900.47;;;;;;;15.28;63.15;100278.50;688263;28;92269;-62
2022/09/26 01:51:37;;;;;;;971.50;906.72;;;;;;;15.28;63.46;100273.06;686020;28;137960;-62
2022/09/26 01:52:04;;;;;;;958.55;894.42;;;;;;;15.28;63.15;100275.78;685328;28;136316;-61
2022/09/26 01:52:31;;;;;;;964.63;900.28;;;;;;;15.25;63.26;100268.03;686266;28;138100;-63
2022/09/26 01:52:57;;;;;;;954.97;891.15;;;;;;;15.27;63.32;100274.13;686000;28;137954;-62
2022/09/26 01:53:23;;;;;;;950.13;886.35;;;;;;;15.25;63.35;100274.34;683549;28;136405;-62